sensor_id;sensor_type;location;lat;lon;timestamp;pressure;altitude;pressure_sealevel;temperature;humidity
56402;BME280;42299;35.160;26.100;2023-03-15T00:00:45;100731.63;;;9.01;100.00
56402;BME280;42299;35.160;26.100;2023-03-15T00:02:08;100724.59;;;8.98;100.00
56402;BME280;42299;35.160;26.100;2023-03-15T00:03:30;100730.66;;;8.96;100.00
56402;BME280;42299;35.160;26.100;2023-03-15T00:04:56;100731.56;;;8.96;100.00
56402;BME280;42299;35.160;26.100;2023-03-15T00:06:19;100716.59;;;8.95;100.00
56402;BME280;42299;35.160;26.100;2023-03-15T00:07:40;100726.19;;;8.93;100.00
56402;BME280;42299;35.160;26.100;2023-03-15T00:09:03;100722.63;;;8.90;100.00
56402;BME280;42299;35.160;26.100;2023-03-15T00:10:26;100720.84;;;8.89;100.00
56402;BME280;42299;35.160;26.100;2023-03-15T00:11:47;100729.56;;;8.85;100.00
56402;BME280;42299;35.160;26.100;2023-03-15T00:13:11;100723.31;;;8.81;100.00
56402;BME280;42299;35.160;26.100;2023-03-15T00:14:35;100725.94;;;8.81;100.00
56402;BME280;42299;35.160;26.100;2023-03-15T00:16:00;100724.16;;;8.80;100.00
56402;BME280;42299;35.160;26.100;2023-03-15T00:17:24;100718.84;;;8.77;100.00
56402;BME280;42299;35.160;26.100;2023-03-15T00:18:46;100722.28;;;8.74;100.00
56402;BME280;42299;35.160;26.100;2023-03-15T00:20:10;100719.59;;;8.71;100.00
56402;BME280;42299;35.160;26.100;2023-03-15T00:21:34;100711.50;;;8.62;100.00
56402;BME280;42299;35.160;26.100;2023-03-15T00:22:55;100714.03;;;8.58;100.00
56402;BME280;42299;35.160;26.100;2023-03-15T00:24:18;100721.03;;;8.57;100.00
56402;BME280;42299;35.160;26.100;2023-03-15T00:25:42;100718.47;;;8.60;100.00
56402;BME280;42299;35.160;26.100;2023-03-15T00:27:04;100724.66;;;8.62;100.00
56402;BME280;42299;35.160;26.100;2023-03-15T00:28:26;100719.47;;;8.65;100.00
56402;BME280;42299;35.160;26.100;2023-03-15T00:29:47;100713.38;;;8.68;100.00
56402;BME280;42299;35.160;26.100;2023-03-15T00:31:13;100710.78;;;8.69;100.00
56402;BME280;42299;35.160;26.100;2023-03-15T00:32:36;100713.41;;;8.69;100.00
56402;BME280;42299;35.160;26.100;2023-03-15T00:33:59;100715.09;;;8.66;100.00
56402;BME280;42299;35.160;26.100;2023-03-15T00:35:23;100708.06;;;8.66;100.00
56402;BME280;42299;35.160;26.100;2023-03-15T00:36:44;100706.28;;;8.64;100.00
56402;BME280;42299;35.160;26.100;2023-03-15T00:38:07;100704.44;;;8.60;100.00
56402;BME280;42299;35.160;26.100;2023-03-15T00:39:28;100699.13;;;8.58;100.00
56402;BME280;42299;35.160;26.100;2023-03-15T00:40:50;100696.50;;;8.58;100.00
56402;BME280;42299;35.160;26.100;2023-03-15T00:42:13;100698.25;;;8.58;100.00
56402;BME280;42299;35.160;26.100;2023-03-15T00:43:36;100689.47;;;8.57;100.00
56402;BME280;42299;35.160;26.100;2023-03-15T00:44:57;100688.56;;;8.57;100.00
56402;BME280;42299;35.160;26.100;2023-03-15T00:46:20;100689.47;;;8.57;100.00
56402;BME280;42299;35.160;26.100;2023-03-15T00:47:44;100686.88;;;8.59;100.00
56402;BME280;42299;35.160;26.100;2023-03-15T00:49:05;100682.50;;;8.61;100.00
56402;BME280;42299;35.160;26.100;2023-03-15T00:50:27;100682.56;;;8.62;100.00
56402;BME280;42299;35.160;26.100;2023-03-15T00:51:50;100684.34;;;8.63;100.00
56402;BME280;42299;35.160;26.100;2023-03-15T00:53:14;100683.41;;;8.61;100.00
56402;BME280;42299;35.160;26.100;2023-03-15T00:54:36;100678.84;;;8.54;100.00
56402;BME280;42299;35.160;26.100;2023-03-15T00:55:58;100675.31;;;8.52;100.00
56402;BME280;42299;35.160;26.100;2023-03-15T00:57:21;100676.31;;;8.57;100.00
56402;BME280;42299;35.160;26.100;2023-03-15T00:58:43;100686.88;;;8.60;100.00
56402;BME280;42299;35.160;26.100;2023-03-15T01:00:07;100689.47;;;8.57;100.00
56402;BME280;42299;35.160;26.100;2023-03-15T01:01:29;100678.84;;;8.54;100.00
56402;BME280;42299;35.160;26.100;2023-03-15T01:02:53;100679.75;;;8.55;100.00
56402;BME280;42299;35.160;26.100;2023-03-15T01:04:15;100679.75;;;8.55;100.00
56402;BME280;42299;35.160;26.100;2023-03-15T01:05:37;100678.00;;;8.55;100.00
56402;BME280;42299;35.160;26.100;2023-03-15T01:06:58;100677.97;;;8.54;100.00
56402;BME280;42299;35.160;26.100;2023-03-15T01:08:21;100684.97;;;8.52;100.00
56402;BME280;42299;35.160;26.100;2023-03-15T01:09:44;100686.63;;;8.48;100.00
56402;BME280;42299;35.160;26.100;2023-03-15T01:11:07;100680.38;;;8.43;100.00
56402;BME280;42299;35.160;26.100;2023-03-15T01:12:30;100679.47;;;8.43;100.00
56402;BME280;42299;35.160;26.100;2023-03-15T01:13:55;100682.06;;;8.41;100.00
56402;BME280;42299;35.160;26.100;2023-03-15T01:15:18;100687.31;;;8.41;100.00
56402;BME280;42299;35.160;26.100;2023-03-15T01:16:40;100693.34;;;8.35;100.00
56402;BME280;42299;35.160;26.100;2023-03-15T01:18:05;100692.88;;;8.17;100.00
56402;BME280;42299;35.160;26.100;2023-03-15T01:19:27;100683.81;;;8.05;100.00
56402;BME280;42299;35.160;26.100;2023-03-15T01:20:48;100675.84;;;8.01;100.00
56402;BME280;42299;35.160;26.100;2023-03-15T01:22:13;100685.53;;;8.04;100.00
56402;BME280;42299;35.160;26.100;2023-03-15T01:23:36;100684.81;;;8.10;100.00
56402;BME280;42299;35.160;26.100;2023-03-15T01:24:59;100690.16;;;8.14;100.00
56402;BME280;42299;35.160;26.100;2023-03-15T01:26:20;100687.56;;;8.16;100.00
56402;BME280;42299;35.160;26.100;2023-03-15T01:27:43;100689.41;;;8.18;100.00
56402;BME280;42299;35.160;26.100;2023-03-15T01:29:04;100686.81;;;8.20;100.00
56402;BME280;42299;35.160;26.100;2023-03-15T01:30:26;100685.94;;;8.21;100.00
56402;BME280;42299;35.160;26.100;2023-03-15T01:31:49;100685.09;;;8.22;100.00
56402;BME280;42299;35.160;26.100;2023-03-15T01:33:13;100691.31;;;8.25;100.00
56402;BME280;42299;35.160;26.100;2023-03-15T01:34:35;100692.28;;;8.29;100.00
56402;BME280;42299;35.160;26.100;2023-03-15T01:35:58;100689.75;;;8.32;100.00
56402;BME280;42299;35.160;26.100;2023-03-15T01:37:21;100686.28;;;8.33;100.00
56402;BME280;42299;35.160;26.100;2023-03-15T01:38:45;100688.03;;;8.34;100.00
56402;BME280;42299;35.160;26.100;2023-03-15T01:40:12;100686.25;;;8.31;100.00
56402;BME280;42299;35.160;26.100;2023-03-15T01:41:37;100682.41;;;8.19;100.00
56402;BME280;42299;35.160;26.100;2023-03-15T01:43:15;100690.94;;;8.10;100.00
56402;BME280;42299;35.160;26.100;2023-03-15T01:44:49;100681.25;;;8.08;100.00
56402;BME280;42299;35.160;26.100;2023-03-15T01:46:20;100675.06;;;8.06;100.00
56402;BME280;42299;35.160;26.100;2023-03-15T01:47:45;100679.41;;;8.04;100.00
56402;BME280;42299;35.160;26.100;2023-03-15T01:49:12;100678.44;;;8.00;100.00
56402;BME280;42299;35.160;26.100;2023-03-15T01:50:37;100677.47;;;7.96;100.00
56402;BME280;42299;35.160;26.100;2023-03-15T01:52:01;100681.03;;;7.98;100.00
56402;BME280;42299;35.160;26.100;2023-03-15T01:53:41;100686.28;;;7.98;100.00
56402;BME280;42299;35.160;26.100;2023-03-15T01:55:06;100676.59;;;7.96;100.00
56402;BME280;42299;35.160;26.100;2023-03-15T01:56:33;100680.94;;;7.94;100.00
56402;BME280;42299;35.160;26.100;2023-03-15T01:57:57;100691.44;;;7.94;100.00
56402;BME280;42299;35.160;26.100;2023-03-15T01:59:29;100693.09;;;7.90;100.00
56402;BME280;42299;35.160;26.100;2023-03-15T02:00:53;100692.78;;;7.78;100.00
56402;BME280;42299;35.160;26.100;2023-03-15T02:02:15;100699.47;;;7.66;100.00
56402;BME280;42299;35.160;26.100;2023-03-15T02:03:40;100693.91;;;7.55;100.00
56402;BME280;42299;35.160;26.100;2023-03-15T02:05:10;100698.84;;;7.43;100.00
56402;BME280;42299;35.160;26.100;2023-03-15T02:06:36;100698.56;;;7.32;100.00
56402;BME280;42299;35.160;26.100;2023-03-15T02:07:57;100700.91;;;7.23;100.00
56402;BME280;42299;35.160;26.100;2023-03-15T02:09:25;100703.59;;;7.25;100.00
56402;BME280;42299;35.160;26.100;2023-03-15T02:10:52;100702.06;;;7.33;100.00
56402;BME280;42299;35.160;26.100;2023-03-15T02:12:14;100699.66;;;7.40;100.00
56402;BME280;42299;35.160;26.100;2023-03-15T02:13:36;100692.78;;;7.45;100.00
56402;BME280;42299;35.160;26.100;2023-03-15T02:15:05;100695.47;;;7.48;100.00
56402;BME280;42299;35.160;26.100;2023-03-15T02:16:31;100696.47;;;7.52;100.00
56402;BME280;42299;35.160;26.100;2023-03-15T02:17:57;100697.41;;;7.54;100.00
56402;BME280;42299;35.160;26.100;2023-03-15T02:19:29;100697.44;;;7.55;100.00
56402;BME280;42299;35.160;26.100;2023-03-15T02:21:04;100696.59;;;7.56;100.00
56402;BME280;42299;35.160;26.100;2023-03-15T02:22:35;100694.94;;;7.60;100.00
56402;BME280;42299;35.160;26.100;2023-03-15T02:24:12;100697.59;;;7.61;100.00
56402;BME280;42299;35.160;26.100;2023-03-15T02:25:43;100695.84;;;7.62;100.00
56402;BME280;42299;35.160;26.100;2023-03-15T02:27:08;100691.50;;;7.63;100.00
56402;BME280;42299;35.160;26.100;2023-03-15T02:28:32;100690.53;;;7.59;100.00
56402;BME280;42299;35.160;26.100;2023-03-15T02:29:53;100683.50;;;7.58;100.00
56402;BME280;42299;35.160;26.100;2023-03-15T02:31:16;100687.06;;;7.60;100.00
56402;BME280;42299;35.160;26.100;2023-03-15T02:32:39;100690.53;;;7.59;100.00
56402;BME280;42299;35.160;26.100;2023-03-15T02:34:04;100690.53;;;7.59;100.00
56402;BME280;42299;35.160;26.100;2023-03-15T02:35:28;100690.53;;;7.59;100.00
56402;BME280;42299;35.160;26.100;2023-03-15T02:36:51;100686.13;;;7.58;100.00
56402;BME280;42299;35.160;26.100;2023-03-15T02:38:15;100692.22;;;7.57;100.00
56402;BME280;42299;35.160;26.100;2023-03-15T02:39:38;100699.16;;;7.53;100.00
56402;BME280;42299;35.160;26.100;2023-03-15T02:41:00;100702.56;;;7.51;100.00
56402;BME280;42299;35.160;26.100;2023-03-15T02:42:21;100704.06;;;7.41;100.00
56402;BME280;42299;35.160;26.100;2023-03-15T02:43:47;100707.22;;;7.30;100.00
56402;BME280;42299;35.160;26.100;2023-03-15T02:45:11;100705.22;;;7.19;100.00
56402;BME280;42299;35.160;26.100;2023-03-15T02:46:34;100709.44;;;7.14;100.00
56402;BME280;42299;35.160;26.100;2023-03-15T02:47:58;100703.31;;;7.14;100.00
56402;BME280;42299;35.160;26.100;2023-03-15T02:49:23;100707.78;;;7.18;100.00
56402;BME280;42299;35.160;26.100;2023-03-15T02:50:46;100710.47;;;7.19;100.00
56402;BME280;42299;35.160;26.100;2023-03-15T02:52:09;100707.91;;;7.22;100.00
56402;BME280;42299;35.160;26.100;2023-03-15T02:53:33;100703.59;;;7.25;100.00
56402;BME280;42299;35.160;26.100;2023-03-15T02:54:54;100705.44;;;7.27;100.00
56402;BME280;42299;35.160;26.100;2023-03-15T02:56:17;100709.06;;;7.32;100.00
56402;BME280;42299;35.160;26.100;2023-03-15T02:57:39;100704.03;;;7.40;100.00
56402;BME280;42299;35.160;26.100;2023-03-15T02:59:03;100705.97;;;7.47;100.00
56402;BME280;42299;35.160;26.100;2023-03-15T03:00:25;100705.16;;;7.49;100.00
56402;BME280;42299;35.160;26.100;2023-03-15T03:01:47;100702.56;;;7.51;100.00
56402;BME280;42299;35.160;26.100;2023-03-15T03:03:10;100704.34;;;7.52;100.00
56402;BME280;42299;35.160;26.100;2023-03-15T03:04:31;100698.25;;;7.53;100.00
56402;BME280;42299;35.160;26.100;2023-03-15T03:05:53;100706.19;;;7.56;100.00
56402;BME280;42299;35.160;26.100;2023-03-15T03:07:16;100699.25;;;7.58;100.00
56402;BME280;42299;35.160;26.100;2023-03-15T03:08:45;100701.88;;;7.58;100.00
56402;BME280;42299;35.160;26.100;2023-03-15T03:10:14;100703.63;;;7.57;100.00
56402;BME280;42299;35.160;26.100;2023-03-15T03:11:43;100699.09;;;7.52;100.00
56402;BME280;42299;35.160;26.100;2023-03-15T03:13:06;100694.78;;;7.54;100.00
56402;BME280;42299;35.160;26.100;2023-03-15T03:14:32;100694.91;;;7.58;100.00
56402;BME280;42299;35.160;26.100;2023-03-15T03:15:55;100710.78;;;7.63;100.00
56402;BME280;42299;35.160;26.100;2023-03-15T03:17:21;100705.66;;;7.69;100.00
56402;BME280;42299;35.160;26.100;2023-03-15T03:18:43;100704.91;;;7.73;100.00
56402;BME280;42299;35.160;26.100;2023-03-15T03:20:08;100704.91;;;7.73;100.00
56402;BME280;42299;35.160;26.100;2023-03-15T03:21:36;100709.19;;;7.70;100.00
56402;BME280;42299;35.160;26.100;2023-03-15T03:22:58;100703.88;;;7.67;100.00
56402;BME280;42299;35.160;26.100;2023-03-15T03:24:20;100703.88;;;7.67;100.00
56402;BME280;42299;35.160;26.100;2023-03-15T03:25:47;100695.94;;;7.65;100.00
56402;BME280;42299;35.160;26.100;2023-03-15T03:27:10;100705.56;;;7.65;100.00
56402;BME280;42299;35.160;26.100;2023-03-15T03:28:36;100703.88;;;7.67;100.00
56402;BME280;42299;35.160;26.100;2023-03-15T03:30:01;100694.25;;;7.67;100.00
56402;BME280;42299;35.160;26.100;2023-03-15T03:31:23;100694.25;;;7.67;100.00
56402;BME280;42299;35.160;26.100;2023-03-15T03:32:47;100690.75;;;7.68;100.00
56402;BME280;42299;35.160;26.100;2023-03-15T03:34:10;100689.91;;;7.68;100.00
56402;BME280;42299;35.160;26.100;2023-03-15T03:35:35;100678.56;;;7.70;100.00
56402;BME280;42299;35.160;26.100;2023-03-15T03:36:57;100684.78;;;7.74;100.00
56402;BME280;42299;35.160;26.100;2023-03-15T03:38:39;100677.81;;;7.76;100.00
56402;BME280;42299;35.160;26.100;2023-03-15T03:40:03;100696.25;;;7.77;100.00
56402;BME280;42299;35.160;26.100;2023-03-15T03:41:28;100688.41;;;7.79;100.00
56402;BME280;42299;35.160;26.100;2023-03-15T03:42:50;100688.47;;;7.82;100.00
56402;BME280;42299;35.160;26.100;2023-03-15T03:44:13;100685.84;;;7.82;100.00
56402;BME280;42299;35.160;26.100;2023-03-15T03:45:39;100692.09;;;7.85;100.00
56402;BME280;42299;35.160;26.100;2023-03-15T03:47:02;100682.44;;;7.84;100.00
56402;BME280;42299;35.160;26.100;2023-03-15T03:48:25;100696.41;;;7.83;100.00
56402;BME280;42299;35.160;26.100;2023-03-15T03:49:47;100697.16;;;7.78;100.00
56402;BME280;42299;35.160;26.100;2023-03-15T03:51:09;100699.66;;;7.73;100.00
56402;BME280;42299;35.160;26.100;2023-03-15T03:52:31;100706.50;;;7.68;100.00
56402;BME280;42299;35.160;26.100;2023-03-15T03:53:59;100709.03;;;7.64;100.00
56402;BME280;42299;35.160;26.100;2023-03-15T03:55:21;100708.06;;;7.60;100.00
56402;BME280;42299;35.160;26.100;2023-03-15T03:56:45;100713.22;;;7.57;100.00
56402;BME280;42299;35.160;26.100;2023-03-15T03:58:06;100714.00;;;7.53;100.00
56402;BME280;42299;35.160;26.100;2023-03-15T03:59:58;100720.00;;;7.49;100.00
56402;BME280;42299;35.160;26.100;2023-03-15T04:01:23;100716.50;;;7.48;100.00
56402;BME280;42299;35.160;26.100;2023-03-15T04:02:46;100713.81;;;7.45;100.00
56402;BME280;42299;35.160;26.100;2023-03-15T04:04:10;100714.59;;;7.43;100.00
56402;BME280;42299;35.160;26.100;2023-03-15T04:05:34;100715.44;;;7.42;100.00
56402;BME280;42299;35.160;26.100;2023-03-15T04:06:56;100705.81;;;7.41;100.00
56402;BME280;42299;35.160;26.100;2023-03-15T04:08:27;100710.91;;;7.35;100.00
56402;BME280;42299;35.160;26.100;2023-03-15T04:09:50;100716.09;;;7.33;100.00
56402;BME280;42299;35.160;26.100;2023-03-15T04:11:12;100710.78;;;7.32;100.00
56402;BME280;42299;35.160;26.100;2023-03-15T04:12:38;100708.16;;;7.32;100.00
56402;BME280;42299;35.160;26.100;2023-03-15T04:13:59;100708.16;;;7.32;100.00
56402;BME280;42299;35.160;26.100;2023-03-15T04:15:22;100712.56;;;7.33;100.00
56402;BME280;42299;35.160;26.100;2023-03-15T04:16:46;100717.72;;;7.28;100.00
56402;BME280;42299;35.160;26.100;2023-03-15T04:18:12;100713.13;;;7.21;100.00
56402;BME280;42299;35.160;26.100;2023-03-15T04:19:35;100707.84;;;7.19;100.00
56402;BME280;42299;35.160;26.100;2023-03-15T04:20:58;100700.84;;;7.20;100.00
56402;BME280;42299;35.160;26.100;2023-03-15T04:22:20;100695.56;;;7.18;100.00
56402;BME280;42299;35.160;26.100;2023-03-15T04:24:17;100702.47;;;7.16;100.00
56402;BME280;42299;35.160;26.100;2023-03-15T04:25:57;100698.06;;;7.15;100.00
56402;BME280;42299;35.160;26.100;2023-03-15T04:27:37;100706.81;;;7.14;100.00
56402;BME280;42299;35.160;26.100;2023-03-15T04:29:20;100697.00;;;7.09;100.00
56402;BME280;42299;35.160;26.100;2023-03-15T04:31:00;100704.94;;;7.10;100.00
56402;BME280;42299;35.160;26.100;2023-03-15T04:32:47;100703.31;;;7.15;100.00
56402;BME280;42299;35.160;26.100;2023-03-15T04:34:35;100697.16;;;7.13;100.00
56402;BME280;42299;35.160;26.100;2023-03-15T04:36:22;100701.56;;;7.14;100.00
56402;BME280;42299;35.160;26.100;2023-03-15T04:37:47;100695.44;;;7.14;100.00
56402;BME280;42299;35.160;26.100;2023-03-15T04:39:34;100696.28;;;7.13;100.00
56402;BME280;42299;35.160;26.100;2023-03-15T04:41:13;100699.84;;;7.15;100.00
56402;BME280;42299;35.160;26.100;2023-03-15T04:42:54;100698.91;;;7.13;100.00
56402;BME280;42299;35.160;26.100;2023-03-15T04:44:25;100699.78;;;7.13;100.00
56402;BME280;42299;35.160;26.100;2023-03-15T04:46:07;100697.16;;;7.13;100.00
56402;BME280;42299;35.160;26.100;2023-03-15T04:47:49;100702.41;;;7.13;100.00
56402;BME280;42299;35.160;26.100;2023-03-15T04:49:27;100698.78;;;7.10;100.00
56402;BME280;42299;35.160;26.100;2023-03-15T04:50:57;100699.63;;;7.07;100.00
56402;BME280;42299;35.160;26.100;2023-03-15T04:52:39;100696.81;;;7.01;100.00
56402;BME280;42299;35.160;26.100;2023-03-15T04:54:16;100696.00;;;7.04;100.00
56402;BME280;42299;35.160;26.100;2023-03-15T04:56:05;100699.78;;;7.13;100.00
56402;BME280;42299;35.160;26.100;2023-03-15T04:57:40;100693.19;;;7.28;100.00
56402;BME280;42299;35.160;26.100;2023-03-15T04:59:27;100683.22;;;7.47;100.00
56402;BME280;42299;35.160;26.100;2023-03-15T05:01:10;100683.75;;;7.69;100.00
56402;BME280;42299;35.160;26.100;2023-03-15T05:03:01;100679.00;;;7.88;100.00
56402;BME280;42299;35.160;26.100;2023-03-15T05:04:53;100674.22;;;8.07;100.00
56402;BME280;42299;35.160;26.100;2023-03-15T05:06:35;100669.41;;;8.25;100.00
56402;BME280;42299;35.160;26.100;2023-03-15T05:08:21;100671.53;;;8.41;100.00
56402;BME280;42299;35.160;26.100;2023-03-15T05:09:57;100665.84;;;8.59;100.00
56402;BME280;42299;35.160;26.100;2023-03-15T05:11:48;100668.00;;;8.78;100.00
56402;BME280;42299;35.160;26.100;2023-03-15T05:13:46;100671.13;;;9.02;100.00
56402;BME280;42299;35.160;26.100;2023-03-15T05:15:32;100668.03;;;9.23;100.00
56402;BME280;42299;35.160;26.100;2023-03-15T05:17:06;100661.41;;;9.43;100.00
56402;BME280;42299;35.160;26.100;2023-03-15T05:18:48;100658.22;;;9.63;100.00
56402;BME280;42299;35.160;26.100;2023-03-15T05:20:29;100653.22;;;9.79;100.00
56402;BME280;42299;35.160;26.100;2023-03-15T05:22:13;100656.16;;;9.96;100.00
56402;BME280;42299;35.160;26.100;2023-03-15T05:23:54;100654.59;;;10.09;100.00
56402;BME280;42299;35.160;26.100;2023-03-15T05:25:39;100650.47;;;10.23;100.00
56402;BME280;42299;35.160;26.100;2023-03-15T05:27:02;100652.41;;;10.37;100.00
56402;BME280;42299;35.160;26.100;2023-03-15T05:28:25;100642.00;;;10.47;100.00
56402;BME280;42299;35.160;26.100;2023-03-15T05:29:52;100639.47;;;10.54;100.00
56402;BME280;42299;35.160;26.100;2023-03-15T05:31:47;100637.78;;;10.59;100.00
56402;BME280;42299;35.160;26.100;2023-03-15T05:33:29;100644.91;;;10.66;100.00
56402;BME280;42299;35.160;26.100;2023-03-15T05:35:14;100636.25;;;10.76;100.00
56402;BME280;42299;35.160;26.100;2023-03-15T05:36:59;100633.75;;;10.87;100.00
56402;BME280;42299;35.160;26.100;2023-03-15T05:38:47;100628.63;;;11.01;100.00
56402;BME280;42299;35.160;26.100;2023-03-15T05:40:24;100636.69;;;11.13;100.00
56402;BME280;42299;35.160;26.100;2023-03-15T05:41:58;100626.31;;;11.28;100.00
56402;BME280;42299;35.160;26.100;2023-03-15T05:43:43;100628.25;;;11.47;100.00
56402;BME280;42299;35.160;26.100;2023-03-15T05:45:25;100630.19;;;11.67;100.00
56402;BME280;42299;35.160;26.100;2023-03-15T05:47:22;100626.84;;;11.84;100.00
56402;BME280;42299;35.160;26.100;2023-03-15T05:49:01;100628.72;;;11.99;100.00
56402;BME280;42299;35.160;26.100;2023-03-15T05:50:48;100638.56;;;12.14;100.00
56402;BME280;42299;35.160;26.100;2023-03-15T05:52:17;100635.97;;;12.29;100.00
56402;BME280;42299;35.160;26.100;2023-03-15T05:53:48;100634.34;;;12.45;100.00
56402;BME280;42299;35.160;26.100;2023-03-15T05:55:29;100641.47;;;12.62;100.00
56402;BME280;42299;35.160;26.100;2023-03-15T05:57:10;100646.00;;;12.78;100.00
56402;BME280;42299;35.160;26.100;2023-03-15T05:59:02;100643.41;;;12.95;100.00
56402;BME280;42299;35.160;26.100;2023-03-15T06:00:43;100639.03;;;13.08;100.00
56402;BME280;42299;35.160;26.100;2023-03-15T06:02:18;100632.91;;;13.21;100.00
56402;BME280;42299;35.160;26.100;2023-03-15T06:03:59;100641.81;;;13.32;100.00
56402;BME280;42299;35.160;26.100;2023-03-15T06:05:24;100640.94;;;13.42;100.00
56402;BME280;42299;35.160;26.100;2023-03-15T06:06:51;100633.88;;;13.53;100.00
56402;BME280;42299;35.160;26.100;2023-03-15T06:08:14;100644.50;;;13.64;100.00
56402;BME280;42299;35.160;26.100;2023-03-15T06:09:40;100641.88;;;13.78;100.00
56402;BME280;42299;35.160;26.100;2023-03-15T06:11:02;100645.38;;;13.93;100.00
56402;BME280;42299;35.160;26.100;2023-03-15T06:12:25;100642.72;;;14.12;100.00
56402;BME280;42299;35.160;26.100;2023-03-15T06:13:48;100631.22;;;14.26;100.00
56402;BME280;42299;35.160;26.100;2023-03-15T06:15:24;100635.66;;;14.41;100.00
56402;BME280;42299;35.160;26.100;2023-03-15T06:16:48;100630.28;;;14.58;100.00
56402;BME280;42299;35.160;26.100;2023-03-15T06:18:11;100631.13;;;14.72;100.00
56402;BME280;42299;35.160;26.100;2023-03-15T06:19:34;100628.41;;;14.84;100.00
56402;BME280;42299;35.160;26.100;2023-03-15T06:20:56;100629.28;;;14.95;100.00
56402;BME280;42299;35.160;26.100;2023-03-15T06:22:20;100629.22;;;15.06;100.00
56402;BME280;42299;35.160;26.100;2023-03-15T06:23:49;100630.94;;;15.14;100.00
56402;BME280;42299;35.160;26.100;2023-03-15T06:25:12;100621.16;;;15.23;100.00
56402;BME280;42299;35.160;26.100;2023-03-15T06:26:34;100624.69;;;15.29;100.00
56402;BME280;42299;35.160;26.100;2023-03-15T06:27:58;100618.38;;;15.38;100.00
56402;BME280;42299;35.160;26.100;2023-03-15T06:29:21;100626.31;;;15.47;100.00
56402;BME280;42299;35.160;26.100;2023-03-15T06:30:43;100611.19;;;15.57;100.00
56402;BME280;42299;35.160;26.100;2023-03-15T06:32:07;100614.69;;;15.66;100.00
56402;BME280;42299;35.160;26.100;2023-03-15T06:33:31;100612.88;;;15.74;100.00
56402;BME280;42299;35.160;26.100;2023-03-15T06:34:53;100609.22;;;15.84;100.00
56402;BME280;42299;35.160;26.100;2023-03-15T06:36:15;100605.59;;;15.94;100.00
56402;BME280;42299;35.160;26.100;2023-03-15T06:37:38;100603.72;;;16.03;100.00
56402;BME280;42299;35.160;26.100;2023-03-15T06:39:01;100593.94;;;16.08;100.00
56402;BME280;42299;35.160;26.100;2023-03-15T06:40:26;100603.56;;;16.19;100.00
56402;BME280;42299;35.160;26.100;2023-03-15T06:41:50;100601.69;;;16.29;100.00
56402;BME280;42299;35.160;26.100;2023-03-15T06:43:15;100599.00;;;16.30;100.00
56402;BME280;42299;35.160;26.100;2023-03-15T06:44:40;100602.50;;;16.35;100.00
56402;BME280;42299;35.160;26.100;2023-03-15T06:46:03;100602.50;;;16.39;100.00
56402;BME280;42299;35.160;26.100;2023-03-15T06:47:26;100595.31;;;16.42;100.00
56402;BME280;42299;35.160;26.100;2023-03-15T06:48:49;100587.31;;;16.47;100.00
56402;BME280;42299;35.160;26.100;2023-03-15T06:50:13;100596.16;;;16.49;100.00
56402;BME280;42299;35.160;26.100;2023-03-15T06:51:36;100589.00;;;16.54;100.00
56402;BME280;42299;35.160;26.100;2023-03-15T06:52:59;100592.50;;;16.57;100.00
56402;BME280;42299;35.160;26.100;2023-03-15T06:54:22;100592.38;;;16.71;100.00
56402;BME280;42299;35.160;26.100;2023-03-15T06:55:45;100585.13;;;16.82;100.00
56402;BME280;42299;35.160;26.100;2023-03-15T06:57:07;100597.44;;;16.91;100.00
56402;BME280;42299;35.160;26.100;2023-03-15T06:58:30;100586.63;;;17.01;100.00
56402;BME280;42299;35.160;26.100;2023-03-15T06:59:52;100586.53;;;17.10;100.00
56402;BME280;42299;35.160;26.100;2023-03-15T07:01:15;100589.97;;;17.19;100.00
56402;BME280;42299;35.160;26.100;2023-03-15T07:02:37;100588.09;;;17.24;100.00
56402;BME280;42299;35.160;26.100;2023-03-15T07:04:00;100591.69;;;17.23;100.00
56402;BME280;42299;35.160;26.100;2023-03-15T07:05:22;100599.78;;;17.17;100.00
56402;BME280;42299;35.160;26.100;2023-03-15T07:06:45;100593.53;;;17.18;100.00
56402;BME280;42299;35.160;26.100;2023-03-15T07:08:09;100603.25;;;17.20;100.00
56402;BME280;42299;35.160;26.100;2023-03-15T07:09:31;100593.44;;;17.25;100.00
56402;BME280;42299;35.160;26.100;2023-03-15T07:10:54;100595.94;;;17.34;100.00
56402;BME280;42299;35.160;26.100;2023-03-15T07:12:16;100603.94;;;17.36;100.00
56402;BME280;42299;35.160;26.100;2023-03-15T07:13:38;100599.41;;;17.39;100.00
56402;BME280;42299;35.160;26.100;2023-03-15T07:15:01;100602.03;;;17.45;100.00
56402;BME280;42299;35.160;26.100;2023-03-15T07:16:24;100598.31;;;17.52;100.00
56402;BME280;42299;35.160;26.100;2023-03-15T07:17:46;100596.50;;;17.56;100.00
56402;BME280;42299;35.160;26.100;2023-03-15T07:19:09;100592.88;;;17.60;100.00
56402;BME280;42299;35.160;26.100;2023-03-15T07:20:31;100599.94;;;17.66;100.00
56402;BME280;42299;35.160;26.100;2023-03-15T07:21:54;100587.41;;;17.71;100.00
56402;BME280;42299;35.160;26.100;2023-03-15T07:23:17;100580.09;;;17.82;100.00
56402;BME280;42299;35.160;26.100;2023-03-15T07:24:40;100586.31;;;17.84;100.00
56402;BME280;42299;35.160;26.100;2023-03-15T07:26:01;100592.47;;;17.87;100.00
56402;BME280;42299;35.160;26.100;2023-03-15T07:27:23;100588.06;;;17.85;99.18
56402;BME280;42299;35.160;26.100;2023-03-15T07:28:46;100589.81;;;17.86;98.78
56402;BME280;42299;35.160;26.100;2023-03-15T07:30:09;100597.72;;;17.92;99.54